Time;durP1;ratioP1;P1;durP2;ratioP2;P2;SDS_P1;SDS_P2;PMS_P1;PMS_P2;Temp;Humidity;BMP_temperature;BMP_pressure;BME280_temperature;BME280_humidity;BME280_pressure;Samples;Min_cycle;Max_cycle;Signal;HPM_P1;HPM_P2
2021/07/18 00:01:42;;;;;;;7.45;3.00;;;;;;;;;;4988809;28;20053;-76
2021/07/18 00:04:08;;;;;;;6.75;3.25;;;;;;;;;;4988063;28;20038;-76
2021/07/18 00:06:34;;;;;;;11.57;4.15;;;;;;;;;;4969366;28;20035;-76
2021/07/18 00:08:59;;;;;;;6.70;3.35;;;;;;;;;;4986116;28;20034;-75
2021/07/18 00:11:25;;;;;;;7.72;3.72;;;;;;;;;;4981349;28;20053;-76
2021/07/18 00:13:50;;;;;;;6.90;3.10;;;;;;;;;;4984482;28;20130;-76
2021/07/18 00:16:16;;;;;;;9.43;3.63;;;;;;;;;;4988726;28;20034;-76
2021/07/18 00:18:41;;;;;;;15.25;4.00;;;;;;;;;;4989561;28;20584;-76
2021/07/18 00:21:07;;;;;;;12.73;4.10;;;;;;;;;;4971661;28;20641;-75
2021/07/18 00:23:32;;;;;;;9.15;3.95;;;;;;;;;;4984927;28;20130;-76
2021/07/18 00:25:58;;;;;;;8.68;3.38;;;;;;;;;;4969196;28;20058;-75
2021/07/18 00:28:24;;;;;;;14.90;4.00;;;;;;;;;;4974648;28;20031;-76
2021/07/18 00:30:49;;;;;;;11.23;3.53;;;;;;;;;;4987915;28;20069;-75
2021/07/18 00:33:15;;;;;;;8.23;3.75;;;;;;;;;;4988371;28;20034;-75
2021/07/18 00:35:40;;;;;;;8.55;3.45;;;;;;;;;;4988575;28;20026;-75
2021/07/18 00:38:06;;;;;;;5.95;2.88;;;;;;;;;;4988008;28;20022;-75
2021/07/18 00:40:32;;;;;;;8.52;3.45;;;;;;;;;;4981397;28;20089;-75
2021/07/18 00:42:58;;;;;;;6.43;2.60;;;;;;;;;;4988362;28;20038;-75
2021/07/18 00:45:23;;;;;;;8.35;3.80;;;;;;;;;;4987323;28;20109;-76
2021/07/18 00:47:49;;;;;;;7.60;3.58;;;;;;;;;;4989732;28;20031;-76
2021/07/18 00:50:17;;;;;;;10.00;3.78;;;;;;;;;;4970359;28;20585;-76
2021/07/18 00:52:43;;;;;;;7.65;3.08;;;;;;;;;;4987690;28;20446;-75
2021/07/18 00:55:10;;;;;;;10.90;3.10;;;;;;;;;;5002571;28;20034;-75
2021/07/18 00:57:37;;;;;;;10.90;3.65;;;;;;;;;;4986261;28;20473;-77
2021/07/18 01:00:07;;;;;;;6.07;3.53;;;;;;;;;;4983770;28;20078;-75
2021/07/18 01:02:33;;;;;;;7.43;3.40;;;;;;;;;;4987876;28;20444;-75
2021/07/18 01:05:00;;;;;;;8.18;3.42;;;;;;;;;;4989485;28;20100;-74
2021/07/18 01:07:26;;;;;;;8.25;3.30;;;;;;;;;;4970523;28;20038;-75
2021/07/18 01:09:52;;;;;;;7.18;3.10;;;;;;;;;;4976518;28;20525;-75
2021/07/18 01:12:17;;;;;;;9.13;3.70;;;;;;;;;;4990974;28;20058;-76
2021/07/18 01:14:44;;;;;;;6.95;3.03;;;;;;;;;;4990721;28;20490;-75
2021/07/18 01:17:11;;;;;;;8.02;3.33;;;;;;;;;;5007476;28;20073;-76
2021/07/18 01:19:39;;;;;;;10.48;3.58;;;;;;;;;;4990655;28;20057;-75
2021/07/18 01:22:05;;;;;;;8.20;3.03;;;;;;;;;;4993722;28;20030;-77
2021/07/18 01:24:31;;;;;;;9.43;3.33;;;;;;;;;;4988374;28;20520;-76
2021/07/18 01:26:57;;;;;;;10.52;3.40;;;;;;;;;;4992563;28;20031;-74
2021/07/18 01:29:24;;;;;;;8.73;3.20;;;;;;;;;;4956232;28;20473;-77
2021/07/18 01:31:49;;;;;;;8.07;3.40;;;;;;;;;;4974357;28;20026;-77
2021/07/18 01:34:15;;;;;;;6.82;3.13;;;;;;;;;;5001654;28;20046;-74
2021/07/18 01:36:41;;;;;;;7.72;3.03;;;;;;;;;;4987327;28;20097;-75
2021/07/18 01:39:09;;;;;;;7.55;3.50;;;;;;;;;;4992660;28;20161;-75
2021/07/18 01:41:35;;;;;;;11.93;3.88;;;;;;;;;;4992708;28;20033;-76
2021/07/18 01:44:01;;;;;;;7.82;3.88;;;;;;;;;;4992525;28;20034;-75
2021/07/18 01:46:29;;;;;;;6.38;3.50;;;;;;;;;;5007108;28;20089;-75
2021/07/18 01:48:55;;;;;;;7.60;3.53;;;;;;;;;;4982417;28;20382;-75
2021/07/18 01:51:22;;;;;;;6.90;3.47;;;;;;;;;;4990920;28;20525;-75
2021/07/18 01:53:50;;;;;;;9.35;3.67;;;;;;;;;;4990359;28;20472;-76
2021/07/18 01:56:16;;;;;;;9.75;3.65;;;;;;;;;;4986112;28;20022;-76
2021/07/18 01:58:41;;;;;;;12.90;3.95;;;;;;;;;;4991886;28;20026;-76
2021/07/18 02:01:07;;;;;;;10.00;3.78;;;;;;;;;;4989287;28;20022;-76
2021/07/18 02:03:33;;;;;;;7.32;3.78;;;;;;;;;;4989357;28;20397;-75
2021/07/18 02:05:58;;;;;;;7.97;3.78;;;;;;;;;;4958377;28;20057;-74
2021/07/18 02:08:24;;;;;;;7.93;3.15;;;;;;;;;;4990935;28;20031;-74
2021/07/18 02:10:49;;;;;;;10.93;3.72;;;;;;;;;;4970636;28;20058;-76
2021/07/18 02:13:17;;;;;;;11.27;3.28;;;;;;;;;;4990674;28;20034;-75
2021/07/18 02:15:42;;;;;;;10.55;3.80;;;;;;;;;;4971812;28;20381;-75
2021/07/18 02:18:08;;;;;;;9.75;3.42;;;;;;;;;;4991584;28;20041;-75
2021/07/18 02:20:34;;;;;;;8.13;3.75;;;;;;;;;;4988586;28;20114;-76
2021/07/18 02:22:59;;;;;;;9.35;3.58;;;;;;;;;;4995068;28;20632;-75
2021/07/18 02:25:25;;;;;;;7.80;3.50;;;;;;;;;;5001372;28;20112;-75
2021/07/18 02:27:52;;;;;;;7.63;4.07;;;;;;;;;;4992063;28;20026;-76
2021/07/18 02:30:19;;;;;;;13.95;3.30;;;;;;;;;;4988579;28;20065;-75
2021/07/18 02:32:45;;;;;;;7.78;3.10;;;;;;;;;;4991253;28;20032;-75
2021/07/18 02:35:14;;;;;;;9.23;3.42;;;;;;;;;;4990157;28;20113;-75
2021/07/18 02:37:41;;;;;;;9.65;3.83;;;;;;;;;;4990187;28;20428;-75
2021/07/18 02:40:08;;;;;;;9.48;3.60;;;;;;;;;;4989868;28;20034;-76
2021/07/18 02:42:34;;;;;;;5.90;3.30;;;;;;;;;;4993225;28;20038;-76
2021/07/18 02:45:00;;;;;;;10.52;3.60;;;;;;;;;;4986157;28;20088;-76
2021/07/18 02:47:26;;;;;;;8.63;3.20;;;;;;;;;;4987809;28;20030;-75
2021/07/18 02:49:51;;;;;;;7.03;2.95;;;;;;;;;;4991531;28;20034;-76
2021/07/18 02:52:17;;;;;;;9.68;3.67;;;;;;;;;;4992164;28;20387;-76
2021/07/18 02:54:43;;;;;;;6.55;3.60;;;;;;;;;;5005971;28;20026;-76
2021/07/18 02:57:08;;;;;;;7.03;3.58;;;;;;;;;;4987039;28;20150;-76
2021/07/18 02:59:34;;;;;;;6.05;3.35;;;;;;;;;;4992461;28;21033;-75
2021/07/18 03:02:00;;;;;;;7.38;3.60;;;;;;;;;;4990567;28;20528;-75
2021/07/18 03:04:26;;;;;;;13.50;3.97;;;;;;;;;;4990348;28;20120;-83
2021/07/18 03:06:51;;;;;;;9.73;3.88;;;;;;;;;;4987325;28;20062;-83
2021/07/18 03:09:17;;;;;;;10.65;4.15;;;;;;;;;;4989821;28;20077;-83
2021/07/18 03:11:42;;;;;;;13.80;4.15;;;;;;;;;;4990653;28;20529;-83
2021/07/18 03:14:08;;;;;;;13.20;4.30;;;;;;;;;;4988868;28;20027;-83
2021/07/18 03:16:33;;;;;;;8.82;3.97;;;;;;;;;;4990133;28;20034;-83
2021/07/18 03:18:59;;;;;;;6.90;4.03;;;;;;;;;;4983499;28;20053;-83
2021/07/18 03:21:24;;;;;;;12.98;4.50;;;;;;;;;;4989901;28;20034;-83
2021/07/18 03:23:50;;;;;;;8.38;4.22;;;;;;;;;;4987570;28;21042;-83
2021/07/18 03:26:15;;;;;;;13.35;4.95;;;;;;;;;;4997850;28;20039;-84
2021/07/18 03:28:41;;;;;;;8.40;3.45;;;;;;;;;;4963228;28;20033;-83
2021/07/18 03:31:07;;;;;;;9.55;4.75;;;;;;;;;;4989935;28;20030;-83
2021/07/18 03:33:32;;;;;;;10.00;4.07;;;;;;;;;;4987781;28;20112;-75
2021/07/18 03:35:58;;;;;;;10.07;3.75;;;;;;;;;;5002733;28;20125;-78
2021/07/18 03:38:23;;;;;;;13.43;4.10;;;;;;;;;;4988403;28;20037;-75
2021/07/18 03:40:49;;;;;;;7.88;3.83;;;;;;;;;;4990275;28;20030;-75
2021/07/18 03:43:14;;;;;;;11.60;3.97;;;;;;;;;;4988054;28;20113;-75
2021/07/18 03:45:40;;;;;;;7.68;3.95;;;;;;;;;;4992503;28;20038;-75
2021/07/18 03:48:05;;;;;;;9.13;4.13;;;;;;;;;;4988581;28;20034;-76
2021/07/18 03:50:31;;;;;;;8.02;4.28;;;;;;;;;;4989059;28;20039;-77
2021/07/18 03:52:56;;;;;;;8.27;4.07;;;;;;;;;;4988004;28;20034;-74
2021/07/18 03:55:22;;;;;;;8.68;4.50;;;;;;;;;;4988086;28;20117;-75
2021/07/18 03:57:47;;;;;;;10.82;4.20;;;;;;;;;;4989256;28;20112;-77
2021/07/18 04:00:15;;;;;;;11.02;3.75;;;;;;;;;;4972382;28;20535;-75
2021/07/18 04:02:40;;;;;;;8.35;3.70;;;;;;;;;;4989511;28;20030;-75
2021/07/18 04:05:06;;;;;;;8.18;3.95;;;;;;;;;;4983028;28;20044;-75
2021/07/18 04:07:32;;;;;;;6.95;3.70;;;;;;;;;;5001264;28;20031;-78
2021/07/18 04:10:02;;;;;;;6.60;4.05;;;;;;;;;;4977314;28;20046;-78
2021/07/18 04:12:28;;;;;;;6.57;3.78;;;;;;;;;;4988022;28;20097;-75
2021/07/18 04:14:53;;;;;;;9.43;5.85;;;;;;;;;;4953222;28;20035;-75
2021/07/18 04:17:19;;;;;;;18.15;4.90;;;;;;;;;;4976602;28;20117;-76
2021/07/18 04:19:44;;;;;;;10.95;4.22;;;;;;;;;;4988398;28;20150;-76
2021/07/18 04:22:09;;;;;;;8.05;4.00;;;;;;;;;;4963640;28;20046;-76
2021/07/18 04:24:35;;;;;;;7.25;4.15;;;;;;;;;;4981034;28;20038;-76
2021/07/18 04:27:00;;;;;;;7.70;4.30;;;;;;;;;;4967220;28;20088;-75
2021/07/18 04:29:26;;;;;;;11.48;4.43;;;;;;;;;;4986908;28;20053;-76
2021/07/18 04:31:51;;;;;;;12.52;5.28;;;;;;;;;;4987410;28;20073;-76
2021/07/18 04:34:18;;;;;;;12.15;5.45;;;;;;;;;;4988177;28;20026;-76
2021/07/18 04:36:45;;;;;;;18.42;6.03;;;;;;;;;;4988025;28;20034;-76
2021/07/18 04:39:10;;;;;;;8.30;5.25;;;;;;;;;;4988249;28;20084;-76
2021/07/18 04:41:37;;;;;;;13.10;5.38;;;;;;;;;;4982988;28;20026;-76
2021/07/18 04:44:04;;;;;;;9.82;4.88;;;;;;;;;;4992476;28;20044;-76
2021/07/18 04:46:29;;;;;;;15.25;5.57;;;;;;;;;;4992103;28;20088;-76
2021/07/18 04:48:55;;;;;;;14.00;5.43;;;;;;;;;;4989700;28;20557;-75
2021/07/18 04:51:20;;;;;;;13.63;5.00;;;;;;;;;;4994091;28;20044;-75
2021/07/18 04:53:46;;;;;;;8.13;4.85;;;;;;;;;;4996470;28;20026;-76
2021/07/18 04:56:11;;;;;;;10.27;5.05;;;;;;;;;;5010660;28;20100;-76
2021/07/18 04:58:37;;;;;;;12.35;5.10;;;;;;;;;;4992207;28;20613;-76
2021/07/18 05:01:03;;;;;;;14.43;5.07;;;;;;;;;;5010308;28;20038;-76
2021/07/18 05:03:28;;;;;;;9.80;5.07;;;;;;;;;;4993659;28;20390;-84
2021/07/18 05:05:54;;;;;;;9.80;4.78;;;;;;;;;;4978790;28;20030;-83
2021/07/18 05:08:20;;;;;;;13.65;5.47;;;;;;;;;;4996699;28;20034;-83
2021/07/18 05:10:46;;;;;;;13.88;4.63;;;;;;;;;;4979000;28;20036;-83
2021/07/18 05:13:11;;;;;;;11.77;4.32;;;;;;;;;;4995366;28;20038;-83
2021/07/18 05:15:37;;;;;;;12.93;4.57;;;;;;;;;;4996104;28;20018;-83
2021/07/18 05:18:14;;;;;;;11.60;4.88;;;;;;;;;;4995745;28;20038;-83
2021/07/18 05:20:41;;;;;;;9.85;4.07;;;;;;;;;;4994736;28;20038;-83
2021/07/18 05:23:07;;;;;;;11.68;3.97;;;;;;;;;;5012060;28;20034;-83
2021/07/18 05:25:33;;;;;;;9.82;3.58;;;;;;;;;;4995033;28;20026;-84
2021/07/18 05:27:58;;;;;;;11.73;4.35;;;;;;;;;;4994013;28;20031;-83
2021/07/18 05:30:24;;;;;;;8.65;3.28;;;;;;;;;;4988608;28;20041;-84
2021/07/18 05:32:49;;;;;;;13.88;3.30;;;;;;;;;;4994718;28;20034;-76
2021/07/18 05:35:15;;;;;;;9.68;3.10;;;;;;;;;;4992528;28;20103;-76
2021/07/18 05:37:40;;;;;;;10.90;3.00;;;;;;;;;;4991839;28;20053;-76
2021/07/18 05:40:08;;;;;;;7.72;3.42;;;;;;;;;;5016531;28;20038;-77
2021/07/18 05:42:34;;;;;;;9.73;3.42;;;;;;;;;;4995872;28;20030;-76
2021/07/18 05:45:00;;;;;;;9.48;3.10;;;;;;;;;;4989347;28;20070;-75
2021/07/18 05:47:26;;;;;;;6.45;2.33;;;;;;;;;;4995057;28;20026;-76
2021/07/18 05:49:52;;;;;;;10.00;2.42;;;;;;;;;;4994776;28;20030;-76
2021/07/18 05:52:17;;;;;;;9.38;2.30;;;;;;;;;;4994761;28;20033;-76
2021/07/18 05:54:43;;;;;;;9.27;2.10;;;;;;;;;;4995141;28;20375;-76
2021/07/18 05:57:09;;;;;;;4.28;2.05;;;;;;;;;;4991256;28;20389;-76
2021/07/18 05:59:34;;;;;;;7.57;2.35;;;;;;;;;;4982874;28;20131;-76
2021/07/18 06:02:00;;;;;;;5.13;2.00;;;;;;;;;;5005083;28;20053;-76
2021/07/18 06:04:25;;;;;;;7.13;2.38;;;;;;;;;;4986574;28;20038;-76
2021/07/18 06:06:51;;;;;;;8.85;2.28;;;;;;;;;;4991959;28;20061;-76
2021/07/18 06:09:17;;;;;;;6.07;2.40;;;;;;;;;;4983793;28;20085;-77
2021/07/18 06:11:43;;;;;;;6.07;2.53;;;;;;;;;;4989426;28;20045;-76
2021/07/18 06:14:08;;;;;;;4.18;2.10;;;;;;;;;;4990696;28;20026;-77
2021/07/18 06:16:34;;;;;;;7.32;3.15;;;;;;;;;;4983157;28;20041;-77
2021/07/18 06:18:59;;;;;;;9.35;3.05;;;;;;;;;;4987674;28;20054;-77
2021/07/18 06:21:25;;;;;;;7.88;2.65;;;;;;;;;;4988366;28;20066;-77
2021/07/18 06:23:50;;;;;;;37.13;8.75;;;;;;;;;;4990184;28;20087;-76
2021/07/18 06:26:16;;;;;;;9.27;3.08;;;;;;;;;;4991150;28;20436;-77
2021/07/18 06:28:42;;;;;;;11.45;4.35;;;;;;;;;;4991653;28;20034;-75
2021/07/18 06:31:07;;;;;;;3.67;1.77;;;;;;;;;;4990448;28;20677;-75
2021/07/18 06:33:33;;;;;;;4.10;1.77;;;;;;;;;;4987885;28;20035;-76
2021/07/18 06:35:58;;;;;;;13.32;2.63;;;;;;;;;;4990699;28;20050;-76
2021/07/18 06:38:24;;;;;;;7.00;1.85;;;;;;;;;;4984186;28;20110;-75
2021/07/18 06:40:49;;;;;;;11.13;2.20;;;;;;;;;;4954748;28;20038;-75
2021/07/18 06:43:15;;;;;;;6.20;1.77;;;;;;;;;;4991034;28;20062;-76
2021/07/18 06:45:41;;;;;;;4.57;1.40;;;;;;;;;;4973154;28;20060;-76
2021/07/18 06:48:06;;;;;;;5.97;1.77;;;;;;;;;;5008193;28;20049;-76
2021/07/18 06:50:32;;;;;;;9.73;1.92;;;;;;;;;;4969777;28;20506;-77
2021/07/18 06:52:58;;;;;;;4.40;1.45;;;;;;;;;;4982924;28;20392;-76
2021/07/18 06:55:23;;;;;;;3.90;1.63;;;;;;;;;;4971512;28;20026;-75
2021/07/18 06:57:51;;;;;;;6.30;2.63;;;;;;;;;;4988465;28;20038;-76
2021/07/18 07:00:17;;;;;;;3.30;2.03;;;;;;;;;;4980649;28;20494;-76
2021/07/18 07:02:43;;;;;;;10.68;2.45;;;;;;;;;;4989349;28;20041;-74
2021/07/18 07:05:10;;;;;;;8.73;2.38;;;;;;;;;;4989613;28;20561;-75
2021/07/18 07:07:35;;;;;;;6.20;2.35;;;;;;;;;;4990335;28;20421;-75
2021/07/18 07:10:01;;;;;;;6.35;2.53;;;;;;;;;;4987636;28;20026;-76
2021/07/18 07:12:26;;;;;;;4.70;1.77;;;;;;;;;;4986379;28;20124;-76
2021/07/18 07:14:52;;;;;;;5.95;2.05;;;;;;;;;;4999230;28;20026;-76
2021/07/18 07:17:19;;;;;;;9.45;2.67;;;;;;;;;;4990642;28;20034;-76
2021/07/18 07:19:44;;;;;;;7.25;1.80;;;;;;;;;;4973862;28;20506;-76
2021/07/18 07:22:11;;;;;;;5.80;2.03;;;;;;;;;;4989551;28;20034;-76
2021/07/18 07:24:37;;;;;;;5.25;1.98;;;;;;;;;;4988616;28;20034;-76
2021/07/18 07:27:03;;;;;;;7.10;2.08;;;;;;;;;;4970558;28;20390;-76
2021/07/18 07:29:28;;;;;;;7.55;2.72;;;;;;;;;;4977157;28;20027;-76
2021/07/18 07:31:54;;;;;;;7.80;2.83;;;;;;;;;;4971257;28;20615;-76
2021/07/18 07:34:19;;;;;;;9.10;2.55;;;;;;;;;;4989436;28;20596;-76
2021/07/18 07:36:45;;;;;;;5.47;2.97;;;;;;;;;;4970149;28;20638;-76
2021/07/18 07:39:10;;;;;;;8.75;2.70;;;;;;;;;;4990439;28;20105;-75
2021/07/18 07:41:36;;;;;;;10.43;3.20;;;;;;;;;;4995234;28;20126;-75
2021/07/18 07:44:01;;;;;;;7.38;2.90;;;;;;;;;;4984225;28;20033;-74
2021/07/18 07:46:27;;;;;;;10.75;2.60;;;;;;;;;;4998676;28;20088;-74
2021/07/18 07:48:53;;;;;;;7.75;2.40;;;;;;;;;;4989218;28;20042;-74
2021/07/18 07:51:19;;;;;;;5.10;2.20;;;;;;;;;;4990108;28;20497;-74
2021/07/18 07:53:45;;;;;;;6.97;2.30;;;;;;;;;;4990334;28;20037;-74
2021/07/18 07:56:11;;;;;;;5.65;2.28;;;;;;;;;;4985343;28;20105;-74
2021/07/18 07:58:37;;;;;;;6.15;2.22;;;;;;;;;;4987477;28;20450;-77
2021/07/18 08:01:03;;;;;;;6.47;1.60;;;;;;;;;;4981703;28;20038;-74
2021/07/18 08:03:28;;;;;;;4.38;1.73;;;;;;;;;;4988964;28;20109;-74
2021/07/18 08:05:54;;;;;;;3.78;1.70;;;;;;;;;;4980382;28;20125;-75
2021/07/18 08:08:19;;;;;;;5.60;2.13;;;;;;;;;;4979752;28;20827;-75
2021/07/18 08:10:45;;;;;;;3.33;1.52;;;;;;;;;;4987221;28;20493;-74
2021/07/18 08:13:11;;;;;;;6.65;1.60;;;;;;;;;;4989382;28;20062;-74
2021/07/18 08:15:36;;;;;;;3.80;1.70;;;;;;;;;;4987010;28;20034;-75
2021/07/18 08:18:03;;;;;;;5.40;1.58;;;;;;;;;;4995466;28;20026;-74
2021/07/18 08:20:28;;;;;;;5.65;2.25;;;;;;;;;;4988559;28;20107;-74
2021/07/18 08:22:56;;;;;;;4.18;1.83;;;;;;;;;;4988971;28;20034;-75
2021/07/18 08:25:25;;;;;;;4.70;2.28;;;;;;;;;;4989631;28;20026;-75
2021/07/18 08:27:51;;;;;;;4.75;2.45;;;;;;;;;;4988383;28;20065;-75
2021/07/18 08:30:17;;;;;;;7.47;3.30;;;;;;;;;;4989392;28;20029;-75
2021/07/18 08:32:43;;;;;;;11.77;4.43;;;;;;;;;;4987805;28;20116;-75
2021/07/18 08:35:10;;;;;;;7.60;3.58;;;;;;;;;;4983792;28;20121;-75
2021/07/18 08:37:36;;;;;;;13.45;3.55;;;;;;;;;;5001530;28;20022;-76
2021/07/18 08:40:04;;;;;;;9.10;3.55;;;;;;;;;;4988522;28;20481;-74
2021/07/18 08:42:30;;;;;;;11.45;4.43;;;;;;;;;;4980322;28;20233;-74
2021/07/18 08:44:58;;;;;;;8.98;3.63;;;;;;;;;;4982854;28;20710;-74
2021/07/18 08:47:24;;;;;;;8.38;3.22;;;;;;;;;;4987567;28;20069;-74
2021/07/18 08:49:50;;;;;;;7.80;2.65;;;;;;;;;;5003705;28;20489;-74
2021/07/18 08:52:20;;;;;;;9.75;2.63;;;;;;;;;;4971821;28;20262;-74
2021/07/18 08:54:46;;;;;;;7.70;2.67;;;;;;;;;;4981073;28;20065;-75
2021/07/18 08:57:13;;;;;;;6.63;2.20;;;;;;;;;;4971853;28;20042;-74
2021/07/18 08:59:38;;;;;;;6.80;2.50;;;;;;;;;;4989405;28;20026;-75
2021/07/18 09:02:05;;;;;;;7.40;2.40;;;;;;;;;;4988200;28;20512;-76
2021/07/18 09:04:31;;;;;;;7.00;2.63;;;;;;;;;;4987215;28;20041;-75
2021/07/18 09:07:04;;;;;;;5.60;2.47;;;;;;;;;;4988916;28;20026;-75
2021/07/18 09:09:30;;;;;;;3.85;2.08;;;;;;;;;;4987661;28;20054;-75
2021/07/18 09:11:58;;;;;;;6.57;2.22;;;;;;;;;;4989497;28;20041;-74
2021/07/18 09:14:29;;;;;;;6.28;2.10;;;;;;;;;;4988414;28;20033;-75
2021/07/18 09:16:54;;;;;;;6.78;1.75;;;;;;;;;;5006427;28;20034;-74
2021/07/18 09:19:33;;;;;;;9.75;2.53;;;;;;;;;;4983388;28;20058;-74
2021/07/18 09:22:04;;;;;;;4.28;1.98;;;;;;;;;;4979125;28;20026;-74
2021/07/18 09:24:31;;;;;;;5.88;2.08;;;;;;;;;;4978096;28;20041;-74
2021/07/18 09:27:21;;;;;;;8.90;2.25;;;;;;;;;;4988361;28;20027;-74
2021/07/18 09:30:03;;;;;;;5.25;2.60;;;;;;;;;;4996406;28;20113;-75
2021/07/18 09:32:33;;;;;;;7.03;1.90;;;;;;;;;;4990155;28;20018;-74
2021/07/18 09:35:03;;;;;;;5.32;1.75;;;;;;;;;;4985447;28;20034;-74
2021/07/18 09:37:30;;;;;;;6.50;2.00;;;;;;;;;;4990673;28;20018;-73
2021/07/18 09:39:59;;;;;;;5.22;2.08;;;;;;;;;;4991249;28;20548;-75
2021/07/18 09:42:46;;;;;;;6.40;2.30;;;;;;;;;;4991560;28;20109;-75
2021/07/18 09:45:11;;;;;;;6.95;1.98;;;;;;;;;;5008092;28;20401;-76
2021/07/18 09:47:49;;;;;;;3.25;1.80;;;;;;;;;;4990543;28;20018;-74
2021/07/18 09:50:19;;;;;;;6.20;1.73;;;;;;;;;;4985375;28;20030;-75
2021/07/18 09:52:48;;;;;;;5.45;1.80;;;;;;;;;;4986447;28;20046;-74
2021/07/18 09:55:23;;;;;;;3.40;1.63;;;;;;;;;;5003893;28;20057;-75
2021/07/18 09:57:52;;;;;;;4.43;1.55;;;;;;;;;;4989586;28;20029;-75
2021/07/18 10:00:19;;;;;;;5.03;1.40;;;;;;;;;;4990548;28;20030;-76
2021/07/18 10:02:45;;;;;;;3.05;1.02;;;;;;;;;;4991948;28;20030;-75
2021/07/18 10:05:37;;;;;;;3.60;1.02;;;;;;;;;;4992197;28;20505;-75
2021/07/18 10:08:10;;;;;;;4.65;1.40;;;;;;;;;;4983262;28;20125;-75
2021/07/18 10:10:38;;;;;;;2.70;1.20;;;;;;;;;;4990055;28;20054;-75
2021/07/18 10:13:05;;;;;;;3.97;1.38;;;;;;;;;;4974554;28;20036;-75
2021/07/18 10:15:31;;;;;;;2.50;1.50;;;;;;;;;;4974649;28;20453;-75
2021/07/18 10:17:57;;;;;;;3.50;1.58;;;;;;;;;;4992031;28;20026;-75
2021/07/18 10:20:24;;;;;;;4.25;1.30;;;;;;;;;;4991326;28;20046;-76
2021/07/18 10:22:53;;;;;;;2.17;1.10;;;;;;;;;;4989337;28;20058;-75
2021/07/18 10:25:20;;;;;;;2.80;1.00;;;;;;;;;;4990021;28;20033;-75
2021/07/18 10:27:47;;;;;;;2.88;1.40;;;;;;;;;;5006118;28;20034;-75
2021/07/18 10:30:14;;;;;;;4.28;1.30;;;;;;;;;;4990894;28;20033;-75
2021/07/18 10:32:40;;;;;;;3.40;1.20;;;;;;;;;;4991468;28;20037;-74
2021/07/18 10:35:08;;;;;;;3.28;1.05;;;;;;;;;;4978264;28;20077;-75
2021/07/18 10:37:42;;;;;;;4.05;1.10;;;;;;;;;;4989934;28;20029;-74
2021/07/18 10:40:17;;;;;;;3.53;1.10;;;;;;;;;;4988496;28;20034;-74
2021/07/18 10:42:43;;;;;;;4.15;1.40;;;;;;;;;;4990650;28;20519;-75
2021/07/18 10:45:29;;;;;;;5.47;1.38;;;;;;;;;;4986753;28;20054;-74
2021/07/18 10:48:06;;;;;;;2.80;1.20;;;;;;;;;;4987715;28;20046;-74
2021/07/18 10:50:44;;;;;;;5.50;1.40;;;;;;;;;;5002409;28;20029;-74
2021/07/18 10:53:21;;;;;;;5.28;1.55;;;;;;;;;;4991256;28;20080;-74
2021/07/18 10:55:49;;;;;;;2.33;1.40;;;;;;;;;;4991238;28;20108;-74
2021/07/18 10:58:39;;;;;;;7.28;1.48;;;;;;;;;;4990766;28;20030;-74
2021/07/18 11:01:11;;;;;;;3.00;1.42;;;;;;;;;;4980245;28;20643;-74
2021/07/18 11:03:43;;;;;;;3.70;1.27;;;;;;;;;;4976628;28;20039;-74
2021/07/18 11:06:29;;;;;;;4.65;1.23;;;;;;;;;;5009938;28;20042;-74
2021/07/18 11:09:08;;;;;;;3.13;1.10;;;;;;;;;;4991192;28;20049;-74
2021/07/18 11:11:40;;;;;;;4.32;1.30;;;;;;;;;;4991546;28;20033;-75
2021/07/18 11:14:35;;;;;;;5.00;1.70;;;;;;;;;;4991409;28;20034;-75
2021/07/18 11:17:23;;;;;;;8.90;1.65;;;;;;;;;;4985475;28;20058;-75
2021/07/18 11:20:04;;;;;;;5.50;1.40;;;;;;;;;;4986479;28;20112;-75
2021/07/18 11:22:56;;;;;;;5.50;1.47;;;;;;;;;;4988864;28;20076;-74
2021/07/18 11:25:37;;;;;;;4.72;1.60;;;;;;;;;;4989454;28;20022;-74
2021/07/18 11:28:03;;;;;;;4.90;1.50;;;;;;;;;;4975293;28;20154;-75
2021/07/18 11:30:38;;;;;;;4.60;2.03;;;;;;;;;;4987113;28;20140;-74
2021/07/18 11:33:26;;;;;;;4.93;2.05;;;;;;;;;;4990834;28;20037;-74
2021/07/18 11:35:56;;;;;;;12.52;1.90;;;;;;;;;;4989980;28;20026;-75
2021/07/18 11:38:22;;;;;;;5.88;2.00;;;;;;;;;;4990156;28;20026;-75
2021/07/18 11:40:48;;;;;;;2.95;1.30;;;;;;;;;;4988345;28;20385;-75
2021/07/18 11:43:13;;;;;;;7.88;1.65;;;;;;;;;;4990568;28;20033;-75
2021/07/18 11:45:39;;;;;;;10.25;1.77;;;;;;;;;;4990341;28;20022;-75
2021/07/18 11:48:05;;;;;;;4.05;1.48;;;;;;;;;;4988677;28;20034;-75
2021/07/18 11:50:30;;;;;;;5.57;2.10;;;;;;;;;;4983263;28;20505;-74
2021/07/18 11:52:58;;;;;;;6.32;1.80;;;;;;;;;;4989527;28;20127;-74
2021/07/18 11:55:25;;;;;;;6.10;2.13;;;;;;;;;;5003520;28;20035;-74
2021/07/18 11:57:51;;;;;;;4.20;1.40;;;;;;;;;;4982635;28;20035;-74
2021/07/18 12:00:17;;;;;;;7.65;1.52;;;;;;;;;;4988215;28;20010;-74
2021/07/18 12:02:44;;;;;;;3.75;1.38;;;;;;;;;;4982866;28;20045;-74
2021/07/18 12:05:10;;;;;;;3.45;1.33;;;;;;;;;;4987415;28;20549;-74
2021/07/18 12:07:36;;;;;;;3.20;1.15;;;;;;;;;;4988155;28;20030;-75
2021/07/18 12:10:02;;;;;;;2.17;1.20;;;;;;;;;;4989987;28;20436;-75
2021/07/18 12:12:28;;;;;;;7.72;1.55;;;;;;;;;;4985170;28;20081;-74
2021/07/18 12:14:55;;;;;;;8.80;1.63;;;;;;;;;;4983831;28;20022;-75
2021/07/18 12:17:20;;;;;;;3.25;1.55;;;;;;;;;;4988798;28;20493;-74
2021/07/18 12:19:46;;;;;;;7.70;1.80;;;;;;;;;;4989251;28;20105;-74
2021/07/18 12:22:14;;;;;;;4.60;1.17;;;;;;;;;;4990461;28;20486;-74
2021/07/18 12:24:53;;;;;;;3.65;1.33;;;;;;;;;;4986690;28;20668;-75
2021/07/18 12:27:29;;;;;;;2.88;1.50;;;;;;;;;;4981319;28;20114;-74
2021/07/18 12:30:03;;;;;;;5.72;1.40;;;;;;;;;;4989296;28;20035;-75
2021/07/18 12:32:31;;;;;;;4.13;1.40;;;;;;;;;;4959620;28;20437;-74
2021/07/18 12:34:58;;;;;;;3.83;1.30;;;;;;;;;;4986588;28;20073;-74
2021/07/18 12:37:31;;;;;;;3.60;1.60;;;;;;;;;;4985468;28;20038;-74
2021/07/18 12:40:02;;;;;;;5.13;1.52;;;;;;;;;;4985599;28;20118;-75
2021/07/18 12:42:33;;;;;;;6.85;2.20;;;;;;;;;;4990131;28;20117;-82
2021/07/18 12:45:15;;;;;;;7.22;2.58;;;;;;;;;;4988976;28;20174;-81
2021/07/18 12:47:45;;;;;;;10.43;4.47;;;;;;;;;;4984710;28;20104;-81
2021/07/18 12:50:19;;;;;;;6.90;3.10;;;;;;;;;;4988648;28;20037;-81
2021/07/18 12:53:06;;;;;;;7.03;2.65;;;;;;;;;;4989475;28;20042;-82
2021/07/18 12:55:39;;;;;;;4.00;1.90;;;;;;;;;;4979662;28;20226;-81
2021/07/18 12:58:17;;;;;;;4.38;1.63;;;;;;;;;;4988931;28;20037;-81
2021/07/18 13:00:45;;;;;;;7.10;1.92;;;;;;;;;;4981250;28;20026;-81
2021/07/18 13:03:12;;;;;;;6.72;2.20;;;;;;;;;;4987421;28;20501;-81
2021/07/18 13:05:38;;;;;;;7.57;2.20;;;;;;;;;;4986795;28;20079;-81
2021/07/18 13:08:04;;;;;;;9.02;2.35;;;;;;;;;;4991137;28;20031;-81
2021/07/18 13:10:37;;;;;;;5.00;1.88;;;;;;;;;;4975909;28;20034;-82
2021/07/18 13:13:03;;;;;;;4.85;2.33;;;;;;;;;;4992880;28;20116;-75
2021/07/18 13:15:29;;;;;;;3.38;1.90;;;;;;;;;;4991821;28;20022;-74
2021/07/18 13:17:56;;;;;;;6.80;2.00;;;;;;;;;;4986904;28;20045;-76
2021/07/18 13:20:24;;;;;;;6.88;2.00;;;;;;;;;;4991449;28;20129;-74
2021/07/18 13:22:51;;;;;;;5.25;1.85;;;;;;;;;;5007930;28;20026;-75
2021/07/18 13:25:32;;;;;;;5.75;2.15;;;;;;;;;;4991848;28;20030;-75
2021/07/18 13:28:01;;;;;;;4.30;1.52;;;;;;;;;;4992463;28;20038;-76
2021/07/18 13:30:33;;;;;;;5.18;1.77;;;;;;;;;;4991604;28;20048;-75
2021/07/18 13:33:20;;;;;;;4.80;1.70;;;;;;;;;;5007798;28;20612;-75
2021/07/18 13:35:50;;;;;;;4.32;2.28;;;;;;;;;;5004704;28;20117;-75
2021/07/18 13:38:26;;;;;;;5.63;2.08;;;;;;;;;;4991505;28;20030;-75
2021/07/18 13:40:54;;;;;;;5.95;2.05;;;;;;;;;;4985193;28;20030;-75
2021/07/18 13:43:21;;;;;;;2.40;1.80;;;;;;;;;;4988972;28;20030;-75
2021/07/18 13:45:56;;;;;;;6.45;1.80;;;;;;;;;;4985699;28;20375;-75
2021/07/18 13:48:24;;;;;;;4.90;1.27;;;;;;;;;;4991070;28;20100;-75
2021/07/18 13:50:51;;;;;;;2.08;1.35;;;;;;;;;;4990769;28;20022;-75
2021/07/18 13:53:17;;;;;;;4.00;1.50;;;;;;;;;;4990869;28;20354;-75
2021/07/18 13:55:43;;;;;;;3.78;1.63;;;;;;;;;;4981526;28;20615;-75
2021/07/18 13:58:09;;;;;;;9.57;1.60;;;;;;;;;;5001162;28;20062;-75
2021/07/18 14:00:36;;;;;;;4.22;1.38;;;;;;;;;;4992098;28;20398;-75
2021/07/18 14:03:02;;;;;;;2.70;1.40;;;;;;;;;;4988981;28;20022;-76
2021/07/18 14:05:28;;;;;;;6.15;1.90;;;;;;;;;;4989512;28;20026;-76
2021/07/18 14:07:53;;;;;;;6.68;1.70;;;;;;;;;;4990711;28;20409;-76
2021/07/18 14:10:19;;;;;;;3.78;1.58;;;;;;;;;;4987096;28;20033;-76
2021/07/18 14:12:46;;;;;;;5.47;1.80;;;;;;;;;;4988870;28;20066;-76
2021/07/18 14:15:14;;;;;;;6.30;1.58;;;;;;;;;;4991936;28;20032;-76
2021/07/18 14:17:40;;;;;;;5.80;2.00;;;;;;;;;;4991122;28;20110;-75
2021/07/18 14:20:11;;;;;;;6.80;1.58;;;;;;;;;;4988927;28;20128;-75
2021/07/18 14:22:37;;;;;;;6.95;2.00;;;;;;;;;;4991462;28;20018;-75
2021/07/18 14:25:07;;;;;;;4.22;1.80;;;;;;;;;;4990601;28;20034;-75
2021/07/18 14:27:34;;;;;;;5.40;2.20;;;;;;;;;;4992212;28;20019;-74
2021/07/18 14:30:00;;;;;;;1.95;1.42;;;;;;;;;;4990356;28;20066;-75
2021/07/18 14:32:26;;;;;;;2.75;1.60;;;;;;;;;;4974362;28;20031;-75
2021/07/18 14:34:52;;;;;;;4.82;2.08;;;;;;;;;;4989325;28;20038;-76
2021/07/18 14:37:17;;;;;;;5.15;1.70;;;;;;;;;;4990580;28;20684;-75
2021/07/18 14:39:43;;;;;;;3.13;1.50;;;;;;;;;;4971243;28;20027;-74
2021/07/18 14:42:08;;;;;;;3.95;1.30;;;;;;;;;;4985457;28;20524;-74
2021/07/18 14:44:34;;;;;;;2.00;1.10;;;;;;;;;;4985004;28;20027;-74